createdAt,value
2019-06-19T00:00:23.621Z,99.90
2019-06-19T00:02:54.608Z,99.90
2019-06-19T00:05:26.141Z,99.90
2019-06-19T00:07:57.851Z,99.90
2019-06-19T00:10:28.810Z,99.90
2019-06-19T00:13:02.211Z,99.90
2019-06-19T00:15:33.114Z,99.90
2019-06-19T00:18:04.808Z,99.90
2019-06-19T00:20:36.051Z,99.90
2019-06-19T00:23:07.311Z,99.90
2019-06-19T00:25:38.856Z,99.90
2019-06-19T00:28:11.325Z,99.90
2019-06-19T00:30:42.876Z,99.90
2019-06-19T00:33:15.056Z,99.90
2019-06-19T00:35:46.344Z,99.90
2019-06-19T00:38:17.664Z,99.90
2019-06-19T00:40:51.762Z,99.90
2019-06-19T00:43:22.478Z,99.90
2019-06-19T00:45:54.331Z,99.90
2019-06-19T00:48:25.879Z,99.90
2019-06-19T00:50:57.749Z,99.90
2019-06-19T00:53:31.074Z,99.90
2019-06-19T00:56:11.181Z,99.90
2019-06-19T00:58:42.865Z,99.90
2019-06-19T01:01:13.273Z,99.90
2019-06-19T01:03:44.872Z,99.90
2019-06-19T01:06:15.914Z,99.90
2019-06-19T01:08:47.786Z,99.90
2019-06-19T01:11:21.107Z,99.90
2019-06-19T01:13:51.975Z,99.90
2019-06-19T01:16:23.506Z,99.90
2019-06-19T01:18:55.054Z,99.90
2019-06-19T01:21:26.300Z,99.90
2019-06-19T01:23:57.865Z,99.90
2019-06-19T01:26:31.254Z,99.90
2019-06-19T01:29:02.269Z,99.90
2019-06-19T01:31:33.885Z,99.90
2019-06-19T01:34:04.903Z,99.90
2019-06-19T01:36:36.505Z,99.90
2019-06-19T01:39:10.919Z,99.90
2019-06-19T01:41:42.976Z,99.90
2019-06-19T01:44:14.322Z,99.90
2019-06-19T01:46:45.669Z,99.90
2019-06-19T01:49:17.237Z,99.90
2019-06-19T01:51:51.022Z,99.90
2019-06-19T01:54:23.118Z,99.90
2019-06-19T01:56:55.071Z,99.90
2019-06-19T01:59:26.989Z,99.90
2019-06-19T02:02:00.836Z,99.90
2019-06-19T02:04:31.860Z,99.90
2019-06-19T02:07:03.102Z,99.90
2019-06-19T02:09:34.757Z,99.90
2019-06-19T02:12:06.648Z,99.90
2019-06-19T02:14:37.566Z,99.90
2019-06-19T02:17:11.083Z,99.90
2019-06-19T02:19:44.828Z,99.90
2019-06-19T02:22:15.706Z,99.90
2019-06-19T02:24:47.325Z,99.90
2019-06-19T02:27:20.907Z,99.90
2019-06-19T02:29:51.025Z,99.90
2019-06-19T02:32:21.971Z,99.90
2019-06-19T02:34:53.373Z,99.90
2019-06-19T02:37:24.612Z,99.90
2019-06-19T02:39:55.869Z,99.90
2019-06-19T02:42:27.218Z,99.90
2019-06-19T02:44:58.466Z,99.90
2019-06-19T02:47:29.762Z,99.90
2019-06-19T02:50:00.785Z,99.90
2019-06-19T02:52:31.796Z,99.90
2019-06-19T02:55:02.795Z,99.90
2019-06-19T02:57:34.361Z,99.90
2019-06-19T03:00:06.859Z,99.90
2019-06-19T03:02:38.450Z,99.90
2019-06-19T03:05:09.720Z,99.90
2019-06-19T03:07:41.468Z,99.90
2019-06-19T03:10:12.106Z,99.90
2019-06-19T03:12:43.875Z,99.90
2019-06-19T03:15:14.999Z,99.90
2019-06-19T03:17:45.973Z,99.90
2019-06-19T03:20:17.348Z,99.90
2019-06-19T03:22:48.940Z,99.90
2019-06-19T03:25:20.622Z,99.90
2019-06-19T03:27:52.549Z,99.90
2019-06-19T03:30:24.126Z,99.90
2019-06-19T03:32:55.459Z,99.90
2019-06-19T03:35:27.339Z,99.90
2019-06-19T03:37:58.775Z,99.90
2019-06-19T03:40:30.386Z,99.90
2019-06-19T03:43:01.970Z,99.90
2019-06-19T03:45:33.601Z,99.90
2019-06-19T03:48:05.557Z,99.90
2019-06-19T03:50:37.130Z,99.90
2019-06-19T03:53:08.103Z,99.90
2019-06-19T03:55:53.251Z,99.90
2019-06-19T03:58:23.929Z,99.90
2019-06-19T04:00:55.500Z,99.90
2019-06-19T04:03:27.495Z,99.90
2019-06-19T04:05:59.660Z,99.90
2019-06-19T04:08:31.240Z,99.90
2019-06-19T04:11:02.541Z,99.90
2019-06-19T04:13:34.159Z,99.90
2019-06-19T04:16:05.136Z,99.90
2019-06-19T04:18:36.377Z,99.90
2019-06-19T04:21:07.479Z,99.90
2019-06-19T04:23:38.444Z,99.90
2019-06-19T04:26:09.553Z,99.90
2019-06-19T04:28:54.644Z,99.90
2019-06-19T04:31:25.931Z,99.90
2019-06-19T04:33:56.950Z,99.90
2019-06-19T04:36:28.671Z,99.90
2019-06-19T04:38:59.968Z,99.90
2019-06-19T04:41:31.571Z,99.90
2019-06-19T04:44:02.716Z,99.90
2019-06-19T04:46:34.327Z,99.90
2019-06-19T04:49:05.878Z,99.90
2019-06-19T04:51:37.151Z,99.90
2019-06-19T04:54:08.160Z,99.90
2019-06-19T04:56:40.133Z,99.90
2019-06-19T04:59:12.297Z,99.90
2019-06-19T05:01:43.827Z,99.90
2019-06-19T05:04:15.092Z,99.90
2019-06-19T05:06:46.663Z,99.90
2019-06-19T05:09:18.617Z,99.90
2019-06-19T05:11:49.962Z,99.90
2019-06-19T05:14:21.878Z,99.90
2019-06-19T05:16:52.886Z,99.90
2019-06-19T05:19:24.767Z,99.90
2019-06-19T05:21:56.289Z,99.90
2019-06-19T05:24:27.646Z,99.90
2019-06-19T05:26:59.137Z,99.90
2019-06-19T05:29:29.927Z,99.90
2019-06-19T05:32:00.708Z,99.90
2019-06-19T05:34:32.403Z,99.90
2019-06-19T05:37:03.516Z,99.90
2019-06-19T05:39:35.264Z,99.90
2019-06-19T05:42:06.722Z,99.90
2019-06-19T05:44:38.486Z,99.90
2019-06-19T05:47:10.334Z,99.90
2019-06-19T05:49:41.733Z,99.90
2019-06-19T05:52:12.809Z,99.90
2019-06-19T05:54:44.411Z,99.90
2019-06-19T05:57:15.530Z,99.90
2019-06-19T05:59:47.204Z,99.90
2019-06-19T06:02:18.728Z,99.90
2019-06-19T06:04:50.578Z,99.90
2019-06-19T06:07:22.319Z,99.90
2019-06-19T06:09:53.863Z,99.90
2019-06-19T06:12:25.228Z,99.90
2019-06-19T06:14:56.838Z,99.90
2019-06-19T06:17:28.490Z,99.90
2019-06-19T06:20:14.111Z,99.90
2019-06-19T06:22:45.958Z,99.90
2019-06-19T06:25:17.322Z,99.90
2019-06-19T06:27:48.705Z,99.90
2019-06-19T06:30:20.083Z,99.90
2019-06-19T06:33:04.879Z,99.90
2019-06-19T06:35:24.388Z,99.90
2019-06-19T06:37:56.384Z,99.90
2019-06-19T06:40:27.956Z,99.90
2019-06-19T06:42:59.556Z,99.90
2019-06-19T06:45:31.098Z,99.90
2019-06-19T06:48:02.714Z,99.90
2019-06-19T06:50:35.032Z,99.90
2019-06-19T06:53:05.982Z,99.90
2019-06-19T06:55:38.316Z,99.90
2019-06-19T06:58:09.615Z,99.90
2019-06-19T07:00:49.272Z,99.90
2019-06-19T07:03:24.667Z,99.90
2019-06-19T07:05:53.552Z,99.90
2019-06-19T07:08:24.850Z,99.90
2019-06-19T07:10:56.398Z,99.90
2019-06-19T07:13:27.698Z,99.90
2019-06-19T07:16:00.150Z,99.90
2019-06-19T07:18:31.278Z,99.90
2019-06-19T07:21:02.854Z,99.90
2019-06-19T07:23:34.126Z,99.90
2019-06-19T07:26:04.981Z,99.90
2019-06-19T07:28:35.961Z,99.90
2019-06-19T07:31:07.255Z,99.90
2019-06-19T07:33:41.756Z,99.90
2019-06-19T07:36:11.875Z,99.90
2019-06-19T07:38:43.831Z,99.90
2019-06-19T07:41:14.779Z,99.90
2019-06-19T07:43:46.360Z,99.90
2019-06-19T07:46:18.368Z,99.90
2019-06-19T07:48:49.603Z,99.90
2019-06-19T07:51:21.514Z,99.90
2019-06-19T07:53:53.129Z,99.90
2019-06-19T07:56:24.353Z,99.90
2019-06-19T07:58:56.249Z,99.90
2019-06-19T08:01:26.916Z,99.90
2019-06-19T08:03:59.658Z,99.90
2019-06-19T08:06:31.133Z,99.90
2019-06-19T08:09:03.184Z,99.90
2019-06-19T08:11:34.883Z,99.90
2019-06-19T08:14:07.234Z,99.90
2019-06-19T08:16:38.442Z,99.90
2019-06-19T08:19:09.826Z,99.90
2019-06-19T08:21:41.374Z,99.90
2019-06-19T08:24:12.643Z,99.90
2019-06-19T08:26:44.064Z,99.90
2019-06-19T08:29:15.474Z,99.90
2019-06-19T08:31:47.939Z,99.90
2019-06-19T08:34:19.597Z,99.90
2019-06-19T08:36:51.471Z,99.90
2019-06-19T08:39:22.638Z,99.90
2019-06-19T08:41:54.222Z,99.90
2019-06-19T08:44:25.500Z,99.90
2019-06-19T08:46:57.394Z,99.90
2019-06-19T08:49:28.660Z,99.90
2019-06-19T08:52:00.564Z,99.90
2019-06-19T08:54:31.686Z,99.90
2019-06-19T08:57:03.565Z,99.90
2019-06-19T09:00:15.859Z,99.90
2019-06-19T09:02:47.861Z,99.90
2019-06-19T09:05:20.158Z,99.90
2019-06-19T09:07:52.075Z,99.90
2019-06-19T09:10:40.293Z,99.90
2019-06-19T09:13:29.651Z,99.90
2019-06-19T09:19:26.448Z,99.90
2019-06-19T09:22:29.573Z,99.90
2019-06-19T09:25:01.308Z,99.90
2019-06-19T09:27:32.813Z,99.90
2019-06-19T09:30:04.633Z,99.90
2019-06-19T09:32:36.954Z,99.90
2019-06-19T09:35:08.575Z,99.90
2019-06-19T09:37:40.633Z,99.90
2019-06-19T09:40:11.700Z,99.90
2019-06-19T09:42:44.605Z,99.90
2019-06-19T09:45:16.618Z,99.90
2019-06-19T09:47:47.388Z,99.90
2019-06-19T09:50:19.643Z,99.90
2019-06-19T09:52:51.062Z,99.90
2019-06-19T09:55:22.060Z,99.90
2019-06-19T09:57:53.495Z,99.90
2019-06-19T10:00:24.848Z,99.90
2019-06-19T10:02:56.078Z,99.90
2019-06-19T10:05:27.404Z,99.90
2019-06-19T10:07:58.717Z,99.90
2019-06-19T10:10:32.737Z,99.90
2019-06-19T10:13:04.666Z,99.90
2019-06-19T10:15:36.085Z,99.40
2019-06-19T10:18:07.116Z,99.10
2019-06-19T10:20:39.274Z,96.20
2019-06-19T10:23:11.163Z,91.40
2019-06-19T10:25:42.092Z,92.90
2019-06-19T10:28:13.409Z,91.70
2019-06-19T10:30:44.712Z,91.20
2019-06-19T10:33:16.726Z,90.60
2019-06-19T10:35:47.959Z,90.50
2019-06-19T10:38:19.127Z,91.50
2019-06-19T10:40:50.538Z,90.60
2019-06-19T10:43:21.816Z,89.20
2019-06-19T10:45:53.942Z,88.70
2019-06-19T10:48:24.896Z,87.60
2019-06-19T10:50:55.902Z,88.70
2019-06-19T10:53:27.202Z,87.10
2019-06-19T10:55:58.474Z,86.20
2019-06-19T10:58:29.784Z,86.70
2019-06-19T11:01:00.778Z,82.20
2019-06-19T11:03:31.894Z,78.70
2019-06-19T11:06:03.309Z,80.30
2019-06-19T11:08:34.760Z,72.80
2019-06-19T11:11:05.502Z,75.70
2019-06-19T11:13:37.688Z,70.50
2019-06-19T11:16:09.119Z,71.20
2019-06-19T11:18:40.201Z,66.40
2019-06-19T11:21:10.922Z,66.60
2019-06-19T11:23:41.898Z,61.40
2019-06-19T11:26:13.695Z,62.80
2019-06-19T11:28:45.346Z,63.70
2019-06-19T11:31:17.158Z,68.70
2019-06-19T11:33:49.263Z,63.40
2019-06-19T11:36:20.670Z,60.20
2019-06-19T11:38:52.154Z,63.30
2019-06-19T11:41:23.688Z,65.10
2019-06-19T11:43:55.145Z,62.00
2019-06-19T11:46:26.523Z,67.30
2019-06-19T11:48:58.593Z,72.40
2019-06-19T11:51:29.369Z,69.70
2019-06-19T11:54:01.562Z,73.10
2019-06-19T11:56:32.873Z,70.70
2019-06-19T11:59:04.727Z,72.20
2019-06-19T12:01:36.035Z,68.30
2019-06-19T12:04:07.841Z,70.00
2019-06-19T12:06:39.790Z,70.70
2019-06-19T12:09:11.176Z,71.40
2019-06-19T12:11:42.271Z,67.30
2019-06-19T12:14:18.753Z,61.90
2019-06-19T12:16:47.517Z,60.10
2019-06-19T12:19:19.297Z,60.10
2019-06-19T12:21:50.317Z,61.70
2019-06-19T12:24:21.321Z,61.10
2019-06-19T12:26:52.648Z,64.10
2019-06-19T12:29:24.260Z,62.00
2019-06-19T12:31:55.976Z,63.60
2019-06-19T12:34:27.710Z,67.10
2019-06-19T12:36:58.662Z,60.60
2019-06-19T12:39:30.950Z,63.10
2019-06-19T12:42:02.295Z,64.40
2019-06-19T12:44:33.683Z,66.10
2019-06-19T12:47:05.509Z,64.70
2019-06-19T12:49:36.837Z,63.40
2019-06-19T12:52:08.232Z,65.20
2019-06-19T12:54:39.225Z,62.80
2019-06-19T12:57:10.544Z,58.90
2019-06-19T12:59:42.170Z,59.60
2019-06-19T13:02:13.127Z,55.20
2019-06-19T13:04:44.739Z,56.30
2019-06-19T13:07:16.445Z,56.50
2019-06-19T13:09:47.753Z,56.70
2019-06-19T13:12:20.749Z,54.50
2019-06-19T13:14:52.664Z,57.70
2019-06-19T13:17:24.000Z,56.80
2019-06-19T13:19:55.896Z,54.00
2019-06-19T13:22:27.699Z,54.30
2019-06-19T13:24:58.934Z,54.80
2019-06-19T13:27:30.130Z,57.50
2019-06-19T13:30:01.119Z,57.50
2019-06-19T13:32:32.178Z,56.50
2019-06-19T13:35:03.898Z,58.60
2019-06-19T13:37:35.457Z,59.30
2019-06-19T13:40:08.589Z,60.00
2019-06-19T13:42:40.578Z,58.90
2019-06-19T13:45:12.894Z,57.20
2019-06-19T13:47:44.218Z,56.40
2019-06-19T13:50:18.975Z,54.20
2019-06-19T13:52:50.401Z,52.70
2019-06-19T13:55:20.910Z,56.50
2019-06-19T13:57:52.984Z,56.00
2019-06-19T14:00:25.566Z,54.50
2019-06-19T14:02:57.119Z,55.30
2019-06-19T14:05:28.167Z,55.90
2019-06-19T14:08:00.258Z,53.20
2019-06-19T14:10:32.235Z,57.00
2019-06-19T14:13:04.066Z,53.90
2019-06-19T14:15:35.169Z,55.40
2019-06-19T14:18:07.618Z,54.40
2019-06-19T14:20:39.130Z,55.60
2019-06-19T14:23:11.070Z,52.40
2019-06-19T14:25:42.876Z,54.20
2019-06-19T14:28:14.228Z,51.70
2019-06-19T14:30:46.184Z,56.30
2019-06-19T14:33:17.905Z,54.00
2019-06-19T14:35:50.392Z,52.40
2019-06-19T14:38:21.426Z,49.90
2019-06-19T14:40:52.736Z,53.20
2019-06-19T14:43:24.040Z,53.00
2019-06-19T14:45:55.826Z,50.80
2019-06-19T14:48:27.754Z,49.20
2019-06-19T14:50:59.615Z,50.30
2019-06-19T14:53:31.395Z,51.20
2019-06-19T14:56:02.495Z,49.60
2019-06-19T14:58:34.185Z,48.60
2019-06-19T15:01:06.117Z,48.70
2019-06-19T15:03:37.269Z,50.90
2019-06-19T15:06:09.447Z,51.60
2019-06-19T15:08:41.459Z,51.80
2019-06-19T15:11:26.851Z,53.00
2019-06-19T15:13:47.333Z,51.30
2019-06-19T15:16:19.081Z,53.20
2019-06-19T15:18:50.497Z,51.80
2019-06-19T15:21:21.732Z,50.50
2019-06-19T15:23:53.215Z,51.50
2019-06-19T15:26:25.233Z,52.00
2019-06-19T15:28:57.809Z,52.00
2019-06-19T15:31:29.092Z,51.90
2019-06-19T15:34:01.126Z,51.50
2019-06-19T15:36:33.711Z,50.90
2019-06-19T15:39:07.192Z,51.90
2019-06-19T15:41:39.718Z,52.30
2019-06-19T15:44:11.142Z,50.70
2019-06-19T15:46:42.381Z,49.80
2019-06-19T15:49:14.220Z,50.40
2019-06-19T15:51:46.207Z,51.20
2019-06-19T15:54:18.027Z,51.10
2019-06-19T15:56:50.007Z,50.40
2019-06-19T15:59:21.182Z,50.50
2019-06-19T16:01:53.595Z,51.20
2019-06-19T16:04:24.652Z,50.70
2019-06-19T16:06:56.571Z,50.20
2019-06-19T16:09:28.280Z,51.50
2019-06-19T16:12:00.287Z,51.20
2019-06-19T16:14:32.319Z,50.40
2019-06-19T16:17:04.461Z,51.40
2019-06-19T16:19:36.316Z,51.00
2019-06-19T16:22:08.179Z,51.90
2019-06-19T16:24:40.836Z,50.80
2019-06-19T16:27:12.469Z,51.40
2019-06-19T16:29:43.907Z,51.40
2019-06-19T16:32:15.247Z,51.00
2019-06-19T16:34:47.051Z,53.20
2019-06-19T16:37:18.942Z,52.00
2019-06-19T16:39:50.854Z,53.10
2019-06-19T16:42:22.815Z,52.90
2019-06-19T16:44:55.031Z,53.30
2019-06-19T16:47:26.433Z,53.50
2019-06-19T16:49:58.938Z,54.20
2019-06-19T16:52:30.850Z,54.00
2019-06-19T16:55:02.383Z,54.90
2019-06-19T16:57:33.615Z,55.10
2019-06-19T17:00:05.908Z,54.70
2019-06-19T17:02:37.653Z,56.20
2019-06-19T17:05:10.998Z,55.20
2019-06-19T17:07:42.848Z,55.10
2019-06-19T17:10:15.011Z,54.40
2019-06-19T17:12:46.899Z,55.20
2019-06-19T17:15:18.876Z,56.30
2019-06-19T17:17:51.160Z,55.20
2019-06-19T17:20:23.553Z,54.00
2019-06-19T17:22:55.547Z,53.80
2019-06-19T17:25:27.172Z,54.40
2019-06-19T17:27:59.027Z,54.60
2019-06-19T17:30:30.623Z,55.00
2019-06-19T17:33:02.266Z,56.40
2019-06-19T17:35:33.962Z,56.70
2019-06-19T17:38:05.883Z,55.40
2019-06-19T17:40:37.041Z,55.70
2019-06-19T17:43:08.739Z,56.70
2019-06-19T17:45:40.446Z,55.70
2019-06-19T17:48:12.058Z,57.00
2019-06-19T17:50:43.444Z,58.30
2019-06-19T17:53:15.627Z,59.60
2019-06-19T17:55:47.295Z,59.40
2019-06-19T17:58:19.419Z,59.40
2019-06-19T18:00:51.765Z,59.30
2019-06-19T18:03:23.294Z,59.40
2019-06-19T18:06:04.134Z,59.60
2019-06-19T18:08:36.101Z,62.00
2019-06-19T18:11:06.938Z,61.50
2019-06-19T18:13:39.145Z,63.10
2019-06-19T18:16:11.618Z,63.20
2019-06-19T18:18:43.629Z,63.90
2019-06-19T18:21:16.031Z,64.40
2019-06-19T18:23:47.422Z,65.80
2019-06-19T18:26:19.693Z,65.50
2019-06-19T18:28:51.531Z,67.30
2019-06-19T18:31:23.639Z,67.80
2019-06-19T18:33:55.583Z,69.40
2019-06-19T18:36:27.082Z,70.40
2019-06-19T18:38:58.515Z,70.50
2019-06-19T18:41:30.210Z,67.70
2019-06-19T18:44:02.581Z,68.00
2019-06-19T18:46:34.549Z,70.70
2019-06-19T18:49:06.521Z,70.50
2019-06-19T18:51:41.135Z,72.50
2019-06-19T18:54:12.917Z,73.00
2019-06-19T18:56:44.815Z,73.90
2019-06-19T18:59:16.601Z,73.50
2019-06-19T19:01:48.492Z,74.00
2019-06-19T19:04:19.626Z,76.80
2019-06-19T19:06:51.842Z,76.30
2019-06-19T19:09:23.755Z,74.30
2019-06-19T19:11:56.148Z,75.20
2019-06-19T19:14:31.009Z,74.40
2019-06-19T19:17:01.812Z,76.20
2019-06-19T19:19:33.667Z,76.90
2019-06-19T19:22:05.213Z,79.80
2019-06-19T19:24:37.624Z,77.60
2019-06-19T19:27:09.346Z,78.30
2019-06-19T19:29:41.699Z,78.90
2019-06-19T19:32:13.878Z,81.00
2019-06-19T19:34:46.094Z,90.20
2019-06-19T19:37:19.125Z,97.80
2019-06-19T19:39:51.341Z,99.90
2019-06-19T19:42:22.838Z,99.90
2019-06-19T19:44:54.024Z,99.90
2019-06-19T19:47:25.421Z,99.90
2019-06-19T19:49:59.086Z,99.90
2019-06-19T19:52:30.389Z,99.90
2019-06-19T19:55:02.296Z,99.90
2019-06-19T19:57:34.005Z,99.90
2019-06-19T20:00:06.698Z,99.90
2019-06-19T20:02:38.207Z,99.90
2019-06-19T20:05:10.569Z,99.90
2019-06-19T20:07:42.019Z,99.90
2019-06-19T20:10:13.274Z,99.90
2019-06-19T20:12:45.803Z,99.90
2019-06-19T20:15:18.312Z,99.90
2019-06-19T20:17:50.184Z,99.90
2019-06-19T20:20:21.977Z,99.90
2019-06-19T20:22:54.193Z,99.90
2019-06-19T20:25:25.731Z,99.90
2019-06-19T20:27:57.321Z,99.90
2019-06-19T20:30:29.532Z,99.90
2019-06-19T20:33:01.406Z,99.90
2019-06-19T20:35:33.337Z,99.90
2019-06-19T20:38:05.586Z,99.90
2019-06-19T20:40:37.367Z,99.90
2019-06-19T20:43:08.650Z,99.90
2019-06-19T20:45:40.588Z,99.90
2019-06-19T20:48:11.929Z,99.90
2019-06-19T20:50:43.414Z,99.90
2019-06-19T20:53:15.028Z,99.90
2019-06-19T20:55:46.696Z,99.90
2019-06-19T20:58:18.396Z,99.90
2019-06-19T21:00:49.204Z,99.90
2019-06-19T21:03:21.180Z,99.90
2019-06-19T21:05:52.236Z,99.90
2019-06-19T21:08:22.969Z,99.90
2019-06-19T21:10:53.938Z,99.90
2019-06-19T21:13:25.870Z,99.90
2019-06-19T21:16:02.762Z,99.90
2019-06-19T21:18:31.070Z,99.90
2019-06-19T21:21:03.190Z,99.90
2019-06-19T21:23:34.538Z,99.90
2019-06-19T21:26:05.278Z,99.90
2019-06-19T21:28:36.527Z,99.90
2019-06-19T21:31:08.010Z,99.90
2019-06-19T21:33:39.008Z,99.90
2019-06-19T21:36:09.780Z,99.90
2019-06-19T21:38:41.107Z,99.90
2019-06-19T21:41:12.504Z,99.90
2019-06-19T21:43:43.242Z,99.90
2019-06-19T21:46:14.323Z,99.90
2019-06-19T21:48:45.940Z,99.90
2019-06-19T21:51:17.267Z,99.90
2019-06-19T21:53:48.775Z,99.90
2019-06-19T21:56:20.372Z,99.90
2019-06-19T21:58:51.797Z,99.90
2019-06-19T22:01:23.347Z,99.90
2019-06-19T22:03:54.837Z,99.90
2019-06-19T22:06:26.158Z,99.90
2019-06-19T22:08:57.579Z,99.90
2019-06-19T22:11:28.494Z,99.90
2019-06-19T22:14:00.916Z,99.90
2019-06-19T22:16:34.248Z,99.90
2019-06-19T22:19:05.626Z,99.90
2019-06-19T22:21:36.984Z,99.90
2019-06-19T22:24:08.046Z,99.90
2019-06-19T22:26:39.370Z,99.90
2019-06-19T22:29:10.385Z,99.90
2019-06-19T22:31:42.407Z,99.90
2019-06-19T22:34:13.958Z,99.90
2019-06-19T22:36:45.899Z,99.90
2019-06-19T22:39:17.191Z,99.90
2019-06-19T22:41:48.027Z,99.90
2019-06-19T22:44:19.668Z,99.90
2019-06-19T22:46:51.044Z,99.90
2019-06-19T22:49:22.611Z,99.90
2019-06-19T22:51:54.402Z,99.90
2019-06-19T22:54:26.416Z,99.90
2019-06-19T22:56:57.401Z,99.90
2019-06-19T22:59:30.361Z,99.90
2019-06-19T23:02:08.462Z,99.90
2019-06-19T23:04:40.036Z,99.90
2019-06-19T23:07:11.220Z,99.90
2019-06-19T23:09:43.321Z,99.90
2019-06-19T23:12:27.386Z,99.90
2019-06-19T23:14:47.921Z,99.90
2019-06-19T23:17:19.182Z,99.90
2019-06-19T23:19:50.887Z,99.90
2019-06-19T23:22:22.128Z,99.90
2019-06-19T23:24:53.129Z,99.90
2019-06-19T23:27:23.799Z,99.90
2019-06-19T23:29:55.385Z,99.90
2019-06-19T23:32:27.005Z,99.90
2019-06-19T23:34:58.261Z,99.90
2019-06-19T23:37:29.555Z,99.90
2019-06-19T23:40:01.400Z,99.90
2019-06-19T23:42:43.674Z,99.90
2019-06-19T23:45:06.451Z,99.90
2019-06-19T23:47:37.350Z,99.90
2019-06-19T23:50:08.856Z,99.90
2019-06-19T23:52:40.388Z,99.90
2019-06-19T23:55:11.762Z,99.90
2019-06-19T23:57:43.127Z,99.90
